Austin, Texas
Current Conditions -  °F | °C
As of 10:51 AM on Friday 31 Oct 2014 (Local Time) from KATT Reporting Station
Clear Clear  
Wind Chill: 21°   Ceiling: Unl
Heat Index: 21°   Visibility: 10mi
Dew Point:   Wind: 9mph
Humidity: 47%   Direction: 350°N
Pressure: 30.3"   Gusts: 16mph
Location:  30.27°N, 97.74°W
Report Text: KATT 311551Z AUTO 35008G14KT 10SM CLR 21/09 A3030 RMK AO2 SLP251 T02060089
Loading
Personal Weather Stations






























Interactive Weather Map
Tropical Storm Tracking
New forecast layout! Learn more

10-Day Weather Forecast

Advertisements
Track Severe Weather on mobile